createdAt,value
2023-04-23T00:01:28.171Z,13.05
2023-04-23T00:03:58.919Z,13.28
2023-04-23T00:06:27.716Z,13.52
2023-04-23T00:08:56.198Z,12.94
2023-04-23T00:11:24.287Z,12.86
2023-04-23T00:13:52.837Z,12.72
2023-04-23T00:16:21.914Z,13.17
2023-04-23T00:18:51.300Z,12.52
2023-04-23T00:21:19.181Z,12.99
2023-04-23T00:23:47.614Z,12.51
2023-04-23T00:26:15.503Z,12.59
2023-04-23T00:28:43.493Z,12.57
2023-04-23T00:31:11.484Z,12.14
2023-04-23T00:33:39.602Z,11.92
2023-04-23T00:36:09.768Z,12.43
2023-04-23T00:38:37.689Z,12.65
2023-04-23T00:41:06.103Z,12.36
2023-04-23T00:43:34.829Z,12.56
2023-04-23T00:46:02.995Z,12.76
2023-04-23T00:48:31.269Z,12.38
2023-04-23T00:51:01.269Z,12.34
2023-04-23T00:53:31.232Z,12.08
2023-04-23T00:55:59.668Z,12.12
2023-04-23T00:58:27.986Z,12.46
2023-04-23T01:00:56.896Z,12.66
2023-04-23T01:03:26.457Z,12.70
2023-04-23T01:05:54.635Z,12.96
2023-04-23T01:08:25.722Z,12.90
2023-04-23T01:10:55.247Z,12.57
2023-04-23T01:13:26.573Z,12.42
2023-04-23T01:15:54.836Z,12.27
2023-04-23T01:18:23.120Z,12.03
2023-04-23T01:20:51.585Z,11.98
2023-04-23T01:23:21.140Z,12.15
2023-04-23T01:25:49.403Z,12.20
2023-04-23T01:28:17.526Z,12.58
2023-04-23T01:30:46.645Z,12.32
2023-04-23T01:33:15.166Z,12.42
2023-04-23T01:35:45.147Z,12.43
2023-04-23T01:38:15.390Z,12.63
2023-04-23T01:40:45.325Z,12.49
2023-04-23T01:43:13.519Z,12.44
2023-04-23T01:45:42.491Z,12.58
2023-04-23T01:48:11.119Z,12.63
2023-04-23T01:50:39.813Z,12.57
2023-04-23T01:53:07.710Z,12.35
2023-04-23T01:55:36.164Z,12.22
2023-04-23T01:58:05.826Z,12.11
2023-04-23T02:00:33.755Z,12.09
2023-04-23T02:03:01.980Z,11.88
2023-04-23T02:05:30.840Z,12.05
2023-04-23T02:07:58.745Z,12.37
2023-04-23T02:10:27.131Z,12.02
2023-04-23T02:12:55.388Z,12.05
2023-04-23T02:15:24.773Z,12.05
2023-04-23T02:17:53.308Z,12.19
2023-04-23T02:20:22.524Z,12.31
2023-04-23T02:22:51.554Z,12.32
2023-04-23T02:25:21.918Z,12.32
2023-04-23T02:27:50.611Z,12.32
2023-04-23T02:30:18.555Z,12.25
2023-04-23T02:32:47.990Z,12.24
2023-04-23T02:35:15.955Z,12.35
2023-04-23T02:37:43.870Z,12.32
2023-04-23T02:40:12.735Z,12.02
2023-04-23T02:42:43.239Z,12.10
2023-04-23T02:45:13.002Z,11.64
2023-04-23T02:47:41.193Z,11.74
2023-04-23T02:50:11.499Z,10.89
2023-04-23T02:52:39.443Z,10.96
2023-04-23T02:55:09.054Z,10.75
2023-04-23T02:57:37.557Z,11.22
2023-04-23T03:00:07.659Z,11.15
2023-04-23T03:02:41.298Z,11.05
2023-04-23T03:05:11.470Z,10.80
2023-04-23T03:07:39.621Z,10.64
2023-04-23T03:10:08.764Z,10.76
2023-04-23T03:12:37.068Z,10.62
2023-04-23T03:15:05.794Z,10.42
2023-04-23T03:17:35.993Z,10.81
2023-04-23T03:20:05.767Z,11.28
2023-04-23T03:22:47.344Z,10.92
2023-04-23T03:25:16.498Z,11.09
2023-04-23T03:27:44.578Z,10.81
2023-04-23T03:30:13.148Z,11.05
2023-04-23T03:32:41.555Z,11.20
2023-04-23T03:35:10.765Z,11.26
2023-04-23T03:37:44.063Z,11.15
2023-04-23T03:40:12.490Z,11.30
2023-04-23T03:42:42.300Z,11.37
2023-04-23T03:45:14.533Z,10.73
2023-04-23T03:47:42.564Z,10.73
2023-04-23T03:50:13.111Z,10.85
2023-04-23T03:52:43.809Z,11.13
2023-04-23T03:55:20.612Z,11.13
2023-04-23T03:57:48.761Z,10.94
2023-04-23T04:00:26.802Z,10.80
2023-04-23T04:02:55.214Z,10.98
2023-04-23T04:05:24.395Z,11.04
2023-04-23T04:07:56.080Z,11.08
2023-04-23T04:10:26.356Z,11.34
2023-04-23T04:12:55.280Z,11.04
2023-04-23T04:15:23.664Z,11.11
2023-04-23T04:17:51.511Z,10.97
2023-04-23T04:20:19.469Z,10.74
2023-04-23T04:22:47.451Z,10.91
2023-04-23T04:25:16.714Z,10.67
2023-04-23T04:27:44.558Z,10.69
2023-04-23T04:30:13.221Z,11.24
2023-04-23T04:32:42.241Z,11.19
2023-04-23T04:35:10.584Z,11.28
2023-04-23T04:37:38.410Z,11.30
2023-04-23T04:40:08.066Z,11.18
2023-04-23T04:42:37.305Z,11.39
2023-04-23T04:45:06.047Z,11.49
2023-04-23T04:47:33.856Z,10.77
2023-04-23T04:50:01.675Z,11.44
2023-04-23T04:52:29.480Z,11.60
2023-04-23T04:54:57.339Z,11.56
2023-04-23T04:57:25.231Z,11.38
2023-04-23T04:59:55.188Z,11.69
2023-04-23T05:02:23.492Z,11.27
2023-04-23T05:04:52.372Z,11.49
2023-04-23T05:07:20.251Z,11.50
2023-04-23T05:09:48.213Z,11.61
2023-04-23T05:12:16.153Z,11.71
2023-04-23T05:14:44.230Z,11.25
2023-04-23T05:17:13.608Z,11.03
2023-04-23T05:19:41.496Z,11.35
2023-04-23T05:22:09.493Z,11.56
2023-04-23T05:24:37.386Z,11.11
2023-04-23T05:27:05.255Z,11.54
2023-04-23T05:29:33.241Z,11.33
2023-04-23T05:32:01.173Z,11.19
2023-04-23T05:34:30.534Z,11.39
2023-04-23T05:36:58.504Z,11.31
2023-04-23T05:39:26.472Z,11.72
2023-04-23T05:41:54.605Z,11.84
2023-04-23T05:44:22.678Z,12.07
2023-04-23T05:46:50.552Z,12.17
2023-04-23T05:49:18.420Z,12.20
2023-04-23T05:51:47.771Z,12.39
2023-04-23T05:54:15.614Z,12.34
2023-04-23T05:56:43.514Z,12.54
2023-04-23T05:59:11.720Z,12.81
2023-04-23T06:01:39.682Z,13.12
2023-04-23T06:04:08.544Z,12.58
2023-04-23T06:06:36.594Z,12.68
2023-04-23T06:09:07.016Z,12.42
2023-04-23T06:11:36.207Z,12.79
2023-04-23T06:14:04.460Z,12.91
2023-04-23T06:16:32.473Z,12.86
2023-04-23T06:19:00.377Z,12.88
2023-04-23T06:21:28.425Z,13.20
2023-04-23T06:23:56.272Z,13.38
2023-04-23T06:26:25.629Z,13.81
2023-04-23T06:28:56.955Z,14.55
2023-04-23T06:31:30.768Z,14.37
2023-04-23T06:33:58.819Z,14.58
2023-04-23T06:36:26.675Z,14.31
2023-04-23T06:38:54.552Z,14.60
2023-04-23T06:41:22.582Z,14.79
2023-04-23T06:44:03.093Z,14.23
2023-04-23T06:46:37.278Z,14.50
2023-04-23T06:49:05.251Z,14.74
2023-04-23T06:51:33.242Z,14.61
2023-04-23T06:54:01.111Z,14.69
2023-04-23T06:56:29.042Z,14.95
2023-04-23T06:58:57.023Z,14.42
2023-04-23T07:01:26.540Z,14.69
2023-04-23T07:03:54.869Z,14.98
2023-04-23T07:06:22.897Z,14.76
2023-04-23T07:08:50.777Z,14.18
2023-04-23T07:11:18.789Z,14.58
2023-04-23T07:13:47.061Z,14.63
2023-04-23T07:16:15.267Z,14.46
2023-04-23T07:18:44.596Z,14.81
2023-04-23T07:21:12.428Z,14.54
2023-04-23T07:23:40.354Z,15.34
2023-04-23T07:26:08.284Z,14.99
2023-04-23T07:28:36.228Z,15.66
2023-04-23T07:31:04.338Z,14.77
2023-04-23T07:33:32.388Z,15.37
2023-04-23T07:36:01.657Z,15.34
2023-04-23T07:38:29.713Z,15.69
2023-04-23T07:40:57.616Z,15.33
2023-04-23T07:43:25.554Z,15.12
2023-04-23T07:45:53.746Z,15.09
2023-04-23T07:48:21.665Z,14.70
2023-04-23T07:50:49.750Z,14.70
2023-04-23T07:53:19.292Z,15.22
2023-04-23T07:55:47.115Z,15.60
2023-04-23T07:58:15.232Z,16.06
2023-04-23T08:00:51.193Z,15.47
2023-04-23T08:03:19.672Z,16.30
2023-04-23T08:05:47.891Z,15.86
2023-04-23T08:08:18.537Z,15.56
2023-04-23T08:10:47.935Z,15.92
2023-04-23T08:13:15.895Z,16.69
2023-04-23T08:15:43.861Z,16.71
2023-04-23T08:18:11.809Z,16.61
2023-04-23T08:20:39.715Z,16.63
2023-04-23T08:23:14.862Z,16.59
2023-04-23T08:25:43.182Z,16.54
2023-04-23T08:28:12.392Z,16.94
2023-04-23T08:30:40.296Z,17.25
2023-04-23T08:33:08.274Z,16.72
2023-04-23T08:35:36.217Z,16.56
2023-04-23T08:38:04.160Z,17.45
2023-04-23T08:40:34.096Z,17.02
2023-04-23T08:43:04.152Z,16.97
2023-04-23T08:45:41.513Z,17.35
2023-04-23T08:48:11.670Z,17.62
2023-04-23T08:50:43.337Z,17.69
2023-04-23T08:53:11.986Z,17.84
2023-04-23T08:55:40.056Z,17.91
2023-04-23T08:58:08.116Z,17.41
2023-04-23T09:00:37.917Z,17.39
2023-04-23T09:03:07.256Z,17.28
2023-04-23T09:05:35.523Z,17.18
2023-04-23T09:08:03.494Z,16.73
2023-04-23T09:10:31.330Z,16.65
2023-04-23T09:12:59.224Z,16.32
2023-04-23T09:15:27.155Z,17.15
2023-04-23T09:17:57.447Z,18.05
2023-04-23T09:20:25.935Z,17.71
2023-04-23T09:22:53.812Z,17.46
2023-04-23T09:25:23.653Z,18.22
2023-04-23T09:27:52.697Z,19.11
2023-04-23T09:30:21.463Z,20.05
2023-04-23T09:32:49.806Z,19.71
2023-04-23T09:35:20.804Z,18.66
2023-04-23T09:37:50.843Z,18.59
2023-04-23T09:40:20.691Z,20.17
2023-04-23T09:42:49.882Z,18.92
2023-04-23T09:45:18.262Z,18.57
2023-04-23T09:47:51.755Z,18.07
2023-04-23T09:50:21.512Z,18.70
2023-04-23T09:52:56.347Z,18.98
2023-04-23T09:55:30.950Z,19.50
2023-04-23T09:57:59.691Z,19.49
2023-04-23T10:00:30.658Z,18.55
2023-04-23T10:03:01.191Z,18.88
2023-04-23T10:05:40.659Z,19.20
2023-04-23T10:08:19.634Z,18.69
2023-04-23T10:10:59.612Z,18.17
2023-04-23T10:13:35.686Z,18.77
2023-04-23T10:16:20.706Z,18.61
2023-04-23T10:18:51.746Z,17.87
2023-04-23T10:21:21.978Z,17.87
2023-04-23T10:23:52.453Z,17.63
2023-04-23T10:26:22.967Z,17.51
2023-04-23T10:28:55.401Z,18.05
2023-04-23T10:31:24.679Z,18.75
2023-04-23T10:33:58.999Z,19.13
2023-04-23T10:36:29.733Z,19.02
2023-04-23T10:39:01.416Z,18.51
2023-04-23T10:41:40.008Z,18.81
2023-04-23T10:44:08.184Z,19.28
2023-04-23T10:46:39.529Z,19.67
2023-04-23T10:49:14.420Z,18.91
2023-04-23T10:54:20.801Z,19.05
2023-04-23T10:56:59.974Z,20.12
2023-04-23T10:59:30.182Z,20.03
2023-04-23T11:02:02.217Z,20.03
2023-04-23T11:04:31.705Z,20.37
2023-04-23T11:07:06.493Z,21.37
2023-04-23T11:09:42.975Z,21.87
2023-04-23T11:12:15.349Z,21.19
2023-04-23T11:14:48.094Z,21.82
2023-04-23T11:17:18.330Z,22.46
2023-04-23T11:20:10.284Z,21.71
2023-04-23T11:22:40.795Z,21.70
2023-04-23T11:25:11.164Z,21.24
2023-04-23T11:27:40.596Z,21.87
2023-04-23T11:30:13.489Z,22.12
2023-04-23T11:32:42.182Z,20.01
2023-04-23T11:35:13.743Z,19.17
2023-04-23T11:37:45.252Z,19.58
2023-04-23T11:40:19.022Z,19.36
2023-04-23T11:42:49.362Z,18.94
2023-04-23T11:45:21.218Z,19.64
2023-04-23T11:47:53.561Z,19.40
2023-04-23T11:50:23.078Z,19.56
2023-04-23T11:52:52.797Z,19.95
2023-04-23T11:55:21.646Z,21.45
2023-04-23T11:57:52.255Z,21.53
2023-04-23T12:00:22.196Z,21.44
2023-04-23T12:02:54.724Z,21.19
2023-04-23T12:05:23.863Z,22.15
2023-04-23T12:07:53.476Z,22.61
2023-04-23T12:10:22.588Z,20.87
2023-04-23T12:12:52.390Z,20.85
2023-04-23T12:15:20.747Z,19.69
2023-04-23T12:17:52.797Z,19.89
2023-04-23T12:20:22.250Z,19.10
2023-04-23T12:22:50.517Z,18.99
2023-04-23T12:25:23.554Z,19.18
2023-04-23T12:27:51.467Z,19.22
2023-04-23T12:30:19.369Z,19.23
2023-04-23T12:32:47.261Z,19.22
2023-04-23T12:35:15.242Z,19.61
2023-04-23T12:37:43.189Z,19.94
2023-04-23T12:40:12.042Z,20.41
2023-04-23T12:42:41.694Z,21.67
2023-04-23T12:45:11.104Z,21.48
2023-04-23T12:47:39.131Z,22.18
2023-04-23T12:50:08.495Z,21.71
2023-04-23T12:52:36.484Z,20.86
2023-04-23T12:55:05.146Z,22.71
2023-04-23T12:57:33.258Z,25.24
2023-04-23T13:00:02.531Z,25.59
2023-04-23T13:02:30.839Z,27.43
2023-04-23T13:05:01.155Z,27.84
2023-04-23T13:07:29.491Z,27.37
2023-04-23T13:09:59.456Z,28.40
2023-04-23T13:12:27.467Z,27.90
2023-04-23T13:14:55.482Z,27.80
2023-04-23T13:17:26.272Z,29.31
2023-04-23T13:19:54.564Z,30.30
2023-04-23T13:22:23.115Z,29.20
2023-04-23T13:24:51.083Z,25.85
2023-04-23T13:27:19.037Z,25.86
2023-04-23T13:29:46.956Z,26.18
2023-04-23T13:32:16.304Z,23.39
2023-04-23T13:34:45.615Z,23.05
2023-04-23T13:37:13.472Z,23.27
2023-04-23T13:39:41.922Z,24.61
2023-04-23T13:42:10.407Z,28.11
2023-04-23T13:44:38.720Z,26.64
2023-04-23T13:47:06.864Z,27.33
2023-04-23T13:49:34.850Z,27.35
2023-04-23T13:52:06.437Z,24.91
2023-04-23T13:54:35.505Z,23.92
2023-04-23T13:57:03.608Z,23.41
2023-04-23T13:59:31.459Z,24.05
2023-04-23T14:01:59.468Z,23.21
2023-04-23T14:04:27.447Z,23.05
2023-04-23T14:06:55.486Z,24.79
2023-04-23T14:09:25.204Z,25.09
2023-04-23T14:11:53.327Z,23.60
2023-04-23T14:14:21.316Z,22.41
2023-04-23T14:16:49.257Z,24.13
2023-04-23T14:19:17.197Z,22.22
2023-04-23T14:21:46.169Z,21.55
2023-04-23T14:24:20.601Z,21.40
2023-04-23T14:26:50.308Z,24.14
2023-04-23T14:29:26.289Z,24.71
2023-04-23T14:31:54.656Z,23.24
2023-04-23T14:34:22.718Z,23.32
2023-04-23T14:36:52.998Z,23.31
2023-04-23T14:39:23.079Z,24.31
2023-04-23T14:41:52.337Z,22.94
2023-04-23T14:44:21.013Z,22.14
2023-04-23T14:46:51.053Z,22.00
2023-04-23T14:49:19.052Z,21.93
2023-04-23T14:51:47.086Z,22.13
2023-04-23T14:54:14.953Z,20.51
2023-04-23T14:56:43.098Z,20.12
2023-04-23T14:59:12.593Z,21.03
2023-04-23T15:01:40.822Z,20.63
2023-04-23T15:04:08.887Z,20.24
2023-04-23T15:06:37.168Z,20.01
2023-04-23T15:09:05.803Z,19.24
2023-04-23T15:11:34.052Z,19.91
2023-04-23T15:14:07.471Z,20.51
2023-04-23T15:16:47.374Z,20.21
2023-04-23T15:19:18.365Z,19.77
2023-04-23T15:21:47.274Z,19.64
2023-04-23T15:24:15.553Z,19.45
2023-04-23T15:26:46.010Z,19.40
2023-04-23T15:29:14.485Z,18.84
2023-04-23T15:31:43.777Z,18.61
2023-04-23T15:34:12.262Z,18.05
2023-04-23T15:36:40.400Z,18.07
2023-04-23T15:39:09.163Z,18.26
2023-04-23T15:41:40.249Z,18.33
2023-04-23T15:44:10.793Z,18.35
2023-04-23T15:46:38.826Z,18.17
2023-04-23T15:49:08.320Z,18.24
2023-04-23T15:51:37.118Z,17.67
2023-04-23T15:54:08.622Z,17.73
2023-04-23T15:56:37.340Z,17.89
2023-04-23T15:59:05.409Z,18.01
2023-04-23T16:01:33.665Z,17.57
2023-04-23T16:06:33.892Z,17.22
2023-04-23T16:09:03.470Z,17.19
2023-04-23T16:11:31.488Z,17.29
2023-04-23T16:13:59.441Z,16.92
2023-04-23T16:16:27.478Z,17.34
2023-04-23T16:18:57.122Z,16.96
2023-04-23T16:21:25.837Z,16.97
2023-04-23T16:23:55.070Z,17.07
2023-04-23T16:26:23.060Z,16.61
2023-04-23T16:28:56.353Z,16.65
2023-04-23T16:31:29.149Z,16.79
2023-04-23T16:33:57.467Z,16.82
2023-04-23T16:36:25.433Z,16.95
2023-04-23T16:38:53.496Z,16.97
2023-04-23T16:41:22.991Z,17.35
2023-04-23T16:43:50.998Z,17.15
2023-04-23T16:46:19.096Z,17.17
2023-04-23T16:48:47.367Z,17.01
2023-04-23T16:51:15.436Z,16.79
2023-04-23T16:53:43.301Z,16.67
2023-04-23T16:56:11.414Z,16.34
2023-04-23T16:58:40.957Z,16.54
2023-04-23T17:01:08.963Z,15.99
2023-04-23T17:03:37.145Z,16.13
2023-04-23T17:06:13.258Z,16.24
2023-04-23T17:08:41.508Z,15.59
2023-04-23T17:11:09.400Z,15.77
2023-04-23T17:13:37.427Z,16.00
2023-04-23T17:16:06.866Z,15.96
2023-04-23T17:18:34.700Z,16.21
2023-04-23T17:21:02.632Z,16.11
2023-04-23T17:23:30.635Z,15.87
2023-04-23T17:25:58.507Z,15.90
2023-04-23T17:28:26.553Z,15.96
2023-04-23T17:30:55.886Z,15.34
2023-04-23T17:33:26.194Z,15.34
2023-04-23T17:35:55.327Z,15.30
2023-04-23T17:38:24.708Z,15.10
2023-04-23T17:40:53.693Z,14.64
2023-04-23T17:43:22.365Z,14.24
2023-04-23T17:45:53.828Z,13.40
2023-04-23T17:48:23.072Z,13.18
2023-04-23T17:50:54.509Z,13.13
2023-04-23T17:53:22.498Z,13.06
2023-04-23T17:55:50.450Z,12.82
2023-04-23T17:58:19.333Z,12.94
2023-04-23T18:00:47.479Z,12.93
2023-04-23T18:03:18.734Z,12.81
2023-04-23T18:05:46.916Z,12.94
2023-04-23T18:08:19.377Z,12.98
2023-04-23T18:10:47.408Z,13.21
2023-04-23T18:13:15.405Z,13.19
2023-04-23T18:15:45.723Z,13.21
2023-04-23T18:18:13.598Z,13.13
2023-04-23T18:20:41.507Z,13.29
2023-04-23T18:23:10.340Z,13.78
2023-04-23T18:25:39.750Z,13.60
2023-04-23T18:28:07.622Z,13.23
2023-04-23T18:30:38.044Z,13.39
2023-04-23T18:33:12.052Z,14.67
2023-04-23T18:35:43.709Z,14.82
2023-04-23T18:38:24.337Z,14.79
2023-04-23T18:40:53.780Z,15.03
2023-04-23T18:43:24.786Z,14.81
2023-04-23T18:45:52.906Z,14.51
2023-04-23T18:48:47.450Z,13.14
2023-04-23T18:51:21.323Z,12.86
2023-04-23T18:53:49.547Z,12.97
2023-04-23T18:56:18.835Z,12.90
2023-04-23T18:58:46.777Z,14.23
2023-04-23T19:01:15.151Z,14.66
2023-04-23T19:03:43.460Z,14.55
2023-04-23T19:06:11.438Z,14.29
2023-04-23T19:08:39.394Z,14.25
2023-04-23T19:11:07.787Z,14.50
2023-04-23T19:13:37.078Z,14.43
2023-04-23T19:16:05.075Z,14.44
2023-04-23T19:18:33.164Z,14.41
2023-04-23T19:21:01.103Z,14.28
2023-04-23T19:23:28.997Z,14.30
2023-04-23T19:25:57.283Z,14.50
2023-04-23T19:28:25.684Z,14.22
2023-04-23T19:30:55.062Z,14.58
2023-04-23T19:33:23.774Z,14.55
2023-04-23T19:35:52.347Z,14.55
2023-04-23T19:38:20.367Z,14.51
2023-04-23T19:40:48.529Z,14.66
2023-04-23T19:43:16.426Z,14.51
2023-04-23T19:45:44.384Z,14.41
2023-04-23T19:48:13.943Z,14.70
2023-04-23T19:50:43.435Z,14.47
2023-04-23T19:53:11.420Z,14.46
2023-04-23T19:55:39.305Z,14.43
2023-04-23T19:58:07.216Z,14.54
2023-04-23T20:00:39.677Z,13.06
2023-04-23T20:03:08.875Z,14.42
2023-04-23T20:05:38.826Z,14.69
2023-04-23T20:08:11.160Z,14.61
2023-04-23T20:10:39.385Z,14.20
2023-04-23T20:13:07.231Z,13.37
2023-04-23T20:15:35.198Z,13.08
2023-04-23T20:18:03.302Z,13.18
2023-04-23T20:20:31.240Z,14.44
2023-04-23T20:23:00.789Z,14.67
2023-04-23T20:25:28.907Z,14.65
2023-04-23T20:28:00.094Z,14.72
2023-04-23T20:30:30.713Z,13.05
2023-04-23T20:33:08.931Z,12.88
2023-04-23T20:35:36.878Z,13.09
2023-04-23T20:38:06.479Z,14.74
2023-04-23T20:40:34.745Z,13.66
2023-04-23T20:43:04.603Z,13.34
2023-04-23T20:45:34.519Z,13.12
2023-04-23T20:48:03.830Z,13.33
2023-04-23T20:50:32.366Z,13.02
2023-04-23T20:53:00.391Z,14.11
2023-04-23T20:55:29.743Z,13.04
2023-04-23T20:57:57.821Z,13.01
2023-04-23T21:00:25.860Z,13.15
2023-04-23T21:02:54.011Z,12.87
2023-04-23T21:05:22.540Z,12.85
2023-04-23T21:07:50.800Z,12.65
2023-04-23T21:10:19.149Z,12.64
2023-04-23T21:12:48.734Z,12.83
2023-04-23T21:15:17.260Z,12.63
2023-04-23T21:17:45.319Z,12.88
2023-04-23T21:20:13.486Z,12.67
2023-04-23T21:22:41.570Z,12.68
2023-04-23T21:25:09.907Z,12.71
2023-04-23T21:27:38.123Z,12.87
2023-04-23T21:30:15.168Z,12.80
2023-04-23T21:32:43.279Z,12.81
2023-04-23T21:35:11.598Z,12.56
2023-04-23T21:37:39.485Z,13.69
2023-04-23T21:40:10.482Z,13.77
2023-04-23T21:42:38.626Z,14.47
2023-04-23T21:45:09.109Z,13.90
2023-04-23T21:47:37.268Z,14.42
2023-04-23T21:50:06.654Z,12.80
2023-04-23T21:52:34.620Z,12.76
2023-04-23T21:55:02.957Z,12.72
2023-04-23T21:57:30.993Z,12.54
2023-04-23T21:59:59.043Z,12.73
2023-04-23T22:02:28.690Z,12.76
2023-04-23T22:04:56.778Z,12.57
2023-04-23T22:07:26.797Z,12.31
2023-04-23T22:09:57.100Z,12.27
2023-04-23T22:12:25.008Z,12.36
2023-04-23T22:14:52.889Z,11.96
2023-04-23T22:17:21.984Z,12.01
2023-04-23T22:19:52.112Z,11.82
2023-04-23T22:22:19.982Z,12.07
2023-04-23T22:24:47.883Z,11.37
2023-04-23T22:27:15.923Z,12.70
2023-04-23T22:29:44.044Z,13.13
2023-04-23T22:32:12.252Z,13.11
2023-04-23T22:34:40.539Z,13.09
2023-04-23T22:37:09.996Z,12.15
2023-04-23T22:39:37.926Z,11.61
2023-04-23T22:42:06.162Z,11.65
2023-04-23T22:44:34.032Z,11.82
2023-04-23T22:47:01.905Z,11.81
2023-04-23T22:49:29.755Z,11.84
2023-04-23T22:51:57.690Z,11.56
2023-04-23T22:54:27.078Z,11.65
2023-04-23T22:56:55.003Z,11.55
2023-04-23T22:59:23.130Z,11.65
2023-04-23T23:01:51.184Z,11.54
2023-04-23T23:04:19.233Z,13.43
2023-04-23T23:06:47.106Z,13.50
2023-04-23T23:09:15.194Z,13.34
2023-04-23T23:11:44.556Z,13.70
2023-04-23T23:14:12.911Z,13.57
2023-04-23T23:16:41.021Z,13.80
2023-04-23T23:19:09.210Z,13.33
2023-04-23T23:21:37.116Z,13.14
2023-04-23T23:24:06.019Z,13.48
2023-04-23T23:26:33.943Z,12.95
2023-04-23T23:29:03.429Z,13.20
2023-04-23T23:31:32.307Z,13.36
2023-04-23T23:34:00.204Z,13.07
2023-04-23T23:36:28.147Z,13.08
2023-04-23T23:38:56.043Z,11.46
2023-04-23T23:41:23.917Z,12.84
2023-04-23T23:43:51.757Z,13.07
2023-04-23T23:46:21.202Z,13.33
2023-04-23T23:48:49.160Z,12.06
2023-04-23T23:51:17.178Z,12.84
2023-04-23T23:53:45.113Z,13.16
2023-04-23T23:56:13.049Z,13.18
2023-04-23T23:58:40.959Z,11.97
